Time;durP1;ratioP1;P1;durP2;ratioP2;P2;SDS_P1;SDS_P2;PMS_P1;PMS_P2;Temp;Humidity;BMP_temperature;BMP_pressure;BME280_temperature;BME280_humidity;BME280_pressure;Samples;Min_cycle;Max_cycle;Signal;HPM_P1;HPM_P2
2023/01/18 00:01:05;;;;;;;21.75;10.52;;;-2.60;99.90;;;;;;4949081;28;20078;-78
2023/01/18 00:03:32;;;;;;;20.67;9.88;;;-2.60;99.90;;;;;;4963188;28;20081;-78
2023/01/18 00:06:00;;;;;;;15.68;9.30;;;-2.50;99.90;;;;;;4918464;28;20049;-77
2023/01/18 00:08:26;;;;;;;19.33;9.68;;;-2.60;99.90;;;;;;4950118;28;20038;-77
2023/01/18 00:10:51;;;;;;;27.13;12.13;;;-2.70;99.90;;;;;;4934639;28;20039;-78
2023/01/18 00:13:17;;;;;;;20.25;9.40;;;-2.80;99.90;;;;;;4921810;28;20034;-77
2023/01/18 00:15:42;;;;;;;18.52;9.88;;;-2.70;99.90;;;;;;4934780;28;20042;-77
2023/01/18 00:18:08;;;;;;;15.43;8.43;;;-2.60;99.90;;;;;;4927316;28;20110;-77
2023/01/18 00:20:33;;;;;;;13.65;8.23;;;-2.40;99.90;;;;;;4918486;28;20368;-77
2023/01/18 00:23:00;;;;;;;21.20;10.13;;;-2.40;99.90;;;;;;4935131;28;20694;-77
2023/01/18 00:25:26;;;;;;;27.15;10.15;;;-2.50;99.90;;;;;;4919312;28;20141;-77
2023/01/18 00:27:52;;;;;;;26.33;13.18;;;-2.50;99.90;;;;;;4922462;28;20122;-77
2023/01/18 00:30:19;;;;;;;26.80;12.70;;;-2.60;99.90;;;;;;4920309;28;20041;-77
2023/01/18 00:32:52;;;;;;;22.38;10.50;;;-2.70;99.90;;;;;;4949124;28;20106;-78
2023/01/18 00:35:20;;;;;;;18.88;8.10;;;-2.80;99.90;;;;;;4938369;28;20046;-79
2023/01/18 00:37:46;;;;;;;20.42;10.05;;;-2.60;99.90;;;;;;4937798;28;20037;-77
2023/01/18 00:40:12;;;;;;;25.13;11.43;;;-2.70;99.90;;;;;;4936969;28;20034;-76
2023/01/18 00:45:21;;;;;;;24.27;10.88;;;-3.00;99.90;;;;;;4944527;28;20394;-77
2023/01/18 00:47:47;;;;;;;17.73;11.00;;;-3.00;99.90;;;;;;4921244;28;20117;-78
2023/01/18 00:50:12;;;;;;;23.65;11.45;;;-3.20;99.90;;;;;;4935218;28;20041;-77
2023/01/18 00:52:39;;;;;;;17.60;9.38;;;-3.40;99.90;;;;;;4954298;28;20038;-78
2023/01/18 00:55:05;;;;;;;21.52;9.32;;;-3.20;99.90;;;;;;4934052;28;20106;-78
2023/01/18 00:57:30;;;;;;;15.98;9.65;;;-2.90;99.90;;;;;;4925351;28;20490;-78
2023/01/18 00:59:56;;;;;;;19.90;10.13;;;-2.70;99.90;;;;;;4932805;28;20035;-77
2023/01/18 01:02:21;;;;;;;17.13;9.13;;;-2.70;99.90;;;;;;4932067;28;20097;-77
2023/01/18 01:07:31;;;;;;;25.55;11.20;;;-2.60;99.90;;;;;;4953755;28;20046;-78
2023/01/18 01:09:57;;;;;;;16.50;9.18;;;-2.90;99.90;;;;;;4934916;28;20034;-77
2023/01/18 01:26:07;;;;;;;27.20;10.57;;;-3.10;99.90;;;;;;4943827;28;20049;-77
2023/01/18 01:28:52;;;;;;;22.60;10.82;;;-3.00;99.90;;;;;;4936156;28;20054;-77
2023/01/18 01:31:18;;;;;;;15.32;5.43;;;-2.80;99.90;;;;;;4958430;28;20854;-77
2023/01/18 01:33:44;;;;;;;14.82;8.40;;;-2.80;99.90;;;;;;4953567;28;20173;-77
2023/01/18 01:36:14;;;;;;;17.63;7.97;;;-2.70;99.90;;;;;;4937600;28;20034;-78
2023/01/18 01:38:40;;;;;;;17.95;8.27;;;-2.60;99.90;;;;;;4938050;28;20054;-78
2023/01/18 01:41:07;;;;;;;16.40;9.27;;;-2.50;99.90;;;;;;4920553;28;20031;-77
2023/01/18 01:43:46;;;;;;;18.10;10.32;;;-2.80;99.90;;;;;;4934796;28;20102;-77
2023/01/18 01:46:29;;;;;;;23.25;10.50;;;-3.10;99.90;;;;;;4939223;28;20239;-77
2023/01/18 01:49:03;;;;;;;18.05;9.48;;;-3.20;99.90;;;;;;4971582;28;20026;-78
2023/01/18 01:51:29;;;;;;;17.77;8.18;;;-3.30;99.90;;;;;;4955824;28;20498;-77
2023/01/18 01:53:55;;;;;;;23.30;10.05;;;-3.10;99.90;;;;;;4936604;28;20100;-78
2023/01/18 01:56:20;;;;;;;19.95;9.98;;;-3.00;99.90;;;;;;4936775;28;20145;-77
2023/01/18 01:58:46;;;;;;;22.27;10.27;;;-3.10;99.90;;;;;;4921840;28;20108;-77
2023/01/18 02:01:12;;;;;;;23.23;10.98;;;-3.20;99.90;;;;;;4934554;28;20114;-77
2023/01/18 02:03:38;;;;;;;23.55;10.57;;;-3.20;99.90;;;;;;4951266;28;20027;-76
2023/01/18 02:06:30;;;;;;;14.50;7.75;;;-3.30;99.90;;;;;;4937981;28;20019;-77
2023/01/18 02:08:59;;;;;;;19.17;9.50;;;-3.20;99.90;;;;;;4935193;28;20178;-78
2023/01/18 02:11:24;;;;;;;17.83;9.90;;;-3.30;99.90;;;;;;4916438;28;20049;-77
2023/01/18 02:13:50;;;;;;;18.55;9.07;;;-3.30;99.90;;;;;;4938940;28;20043;-77
2023/01/18 02:16:28;;;;;;;20.00;10.35;;;-3.00;99.90;;;;;;4919320;28;20047;-77
2023/01/18 02:19:24;;;;;;;18.83;8.13;;;-3.10;99.90;;;;;;4952446;28;20050;-77
2023/01/18 02:21:56;;;;;;;15.95;8.10;;;-3.30;99.90;;;;;;4964477;28;20494;-77
2023/01/18 02:24:39;;;;;;;12.60;7.45;;;-3.30;99.90;;;;;;4921368;28;20089;-77
2023/01/18 02:27:14;;;;;;;20.70;9.50;;;-3.20;99.90;;;;;;4936933;28;20468;-77
2023/01/18 02:29:46;;;;;;;20.67;10.30;;;-3.30;99.90;;;;;;4947722;28;20073;-77
2023/01/18 02:32:38;;;;;;;22.40;11.20;;;-3.40;99.90;;;;;;4934084;28;20070;-78
2023/01/18 02:35:10;;;;;;;19.02;8.98;;;-3.50;99.90;;;;;;4950119;28;20030;-77
2023/01/18 02:37:49;;;;;;;24.35;9.82;;;-3.40;99.90;;;;;;4933895;28;20034;-78
2023/01/18 02:40:17;;;;;;;18.63;9.82;;;-3.50;99.90;;;;;;4919595;28;20407;-77
2023/01/18 02:48:20;;;;;;;15.50;7.90;;;-3.30;99.90;;;;;;4935723;28;20053;-77
2023/01/18 02:50:46;;;;;;;24.65;11.73;;;-3.10;99.90;;;;;;4928421;28;20035;-77
2023/01/18 02:53:12;;;;;;;18.17;8.38;;;-3.20;99.90;;;;;;4915172;28;20027;-77
2023/01/18 02:55:43;;;;;;;24.67;12.35;;;-3.30;99.90;;;;;;4919828;28;20030;-78
2023/01/18 02:58:24;;;;;;;15.63;8.88;;;-3.50;99.90;;;;;;4968465;28;20585;-77
2023/01/18 03:00:54;;;;;;;16.52;9.15;;;-3.50;99.90;;;;;;4934402;28;20054;-78
2023/01/18 03:03:20;;;;;;;18.95;8.38;;;-3.40;99.90;;;;;;4911793;28;20053;-77
2023/01/18 03:05:45;;;;;;;13.35;7.35;;;-3.30;99.90;;;;;;4932535;28;20527;-78
2023/01/18 03:08:34;;;;;;;19.05;9.07;;;-3.10;99.90;;;;;;4936064;28;20039;-77
2023/01/18 03:11:02;;;;;;;20.52;9.88;;;-3.10;99.90;;;;;;4937501;28;20186;-77
2023/01/18 03:14:31;;;;;;;20.13;9.35;;;-2.90;99.90;;;;;;4938355;28;20034;-78
2023/01/18 03:17:29;;;;;;;14.50;8.55;;;-3.20;99.90;;;;;;4877441;29;20037;-78
2023/01/18 03:20:07;;;;;;;15.65;7.97;;;-3.30;99.90;;;;;;4860599;29;20062;-78
2023/01/18 03:25:34;;;;;;;15.13;7.95;;;-3.20;99.90;;;;;;4943143;28;20041;-78
2023/01/18 03:33:52;;;;;;;22.00;10.80;;;-2.90;99.90;;;;;;4938201;28;20446;-85
2023/01/18 03:36:30;;;;;;;21.42;11.60;;;-3.20;99.90;;;;;;4919361;28;20538;-85
2023/01/18 03:39:04;;;;;;;22.02;9.82;;;-3.40;99.90;;;;;;4949731;28;20023;-84
2023/01/18 03:41:31;;;;;;;24.27;11.25;;;-3.30;99.90;;;;;;4923234;28;20503;-77
2023/01/18 03:43:59;;;;;;;23.85;11.75;;;-3.50;99.90;;;;;;4918668;28;20098;-77
2023/01/18 03:46:25;;;;;;;19.17;9.77;;;-3.60;99.90;;;;;;4928529;28;20394;-77
2023/01/18 03:48:50;;;;;;;15.15;8.73;;;-3.70;99.90;;;;;;4935656;28;20027;-77
2023/01/18 03:51:24;;;;;;;20.15;9.27;;;-3.50;99.90;;;;;;4918826;28;20045;-78
2023/01/18 03:53:53;;;;;;;21.92;10.88;;;-3.20;99.90;;;;;;4932064;28;20537;-78
2023/01/18 03:56:27;;;;;;;20.63;10.38;;;-3.20;99.90;;;;;;4951669;28;20034;-77
2023/01/18 03:58:53;;;;;;;20.42;9.90;;;-3.30;99.90;;;;;;4948215;28;20030;-78
2023/01/18 04:01:19;;;;;;;24.38;10.98;;;-3.30;99.90;;;;;;4919259;28;20066;-78
2023/01/18 04:03:44;;;;;;;16.30;8.60;;;-3.30;99.90;;;;;;4929916;28;20038;-77
2023/01/18 04:06:10;;;;;;;18.95;8.75;;;-3.10;99.90;;;;;;4912851;28;20447;-79
2023/01/18 04:08:35;;;;;;;17.23;8.95;;;-3.10;99.90;;;;;;4921468;28;20503;-78
2023/01/18 04:11:01;;;;;;;20.83;11.98;;;-3.20;99.90;;;;;;4921902;28;20034;-78
2023/01/18 04:13:26;;;;;;;21.20;11.15;;;-3.30;99.90;;;;;;4954664;28;20041;-78
2023/01/18 04:15:52;;;;;;;19.45;10.27;;;-3.40;99.90;;;;;;4952333;28;20045;-77
2023/01/18 04:18:17;;;;;;;26.88;10.85;;;-3.30;99.90;;;;;;4927630;28;20045;-78
2023/01/18 04:20:43;;;;;;;21.08;10.82;;;-3.30;99.90;;;;;;4914636;28;20030;-77
2023/01/18 04:23:09;;;;;;;18.38;10.40;;;-3.60;99.90;;;;;;4932476;28;20439;-77
2023/01/18 04:25:34;;;;;;;23.35;11.10;;;-3.60;99.90;;;;;;4931995;28;20111;-78
2023/01/18 04:28:00;;;;;;;19.58;11.40;;;-3.80;99.90;;;;;;4922618;28;20039;-77
2023/01/18 04:30:26;;;;;;;13.75;7.57;;;-4.00;99.90;;;;;;4938837;28;20055;-78
2023/01/18 04:32:51;;;;;;;16.65;9.05;;;-3.90;99.90;;;;;;4938640;28;20459;-78
2023/01/18 04:35:17;;;;;;;18.55;9.55;;;-3.70;99.90;;;;;;4938145;28;20042;-78
2023/01/18 04:37:42;;;;;;;19.48;9.38;;;-3.60;99.90;;;;;;4920012;28;20237;-78
2023/01/18 04:40:08;;;;;;;22.67;11.18;;;-3.70;99.90;;;;;;4935635;28;20121;-77
2023/01/18 04:42:34;;;;;;;21.55;11.15;;;-3.80;99.90;;;;;;4938065;28;20030;-77
2023/01/18 04:45:00;;;;;;;18.65;9.43;;;-3.60;99.90;;;;;;4925069;28;20450;-77
2023/01/18 04:47:27;;;;;;;14.68;7.88;;;-3.60;99.90;;;;;;4924979;28;20063;-77
2023/01/18 04:49:54;;;;;;;18.70;9.98;;;-3.70;99.90;;;;;;4950465;28;20046;-77
2023/01/18 04:52:19;;;;;;;16.90;10.32;;;-3.70;99.90;;;;;;4926118;28;20494;-77
2023/01/18 04:54:45;;;;;;;19.95;11.25;;;-3.90;99.90;;;;;;4953436;28;20031;-77
2023/01/18 04:57:10;;;;;;;19.23;10.60;;;-4.00;99.90;;;;;;4924323;28;20034;-77
2023/01/18 04:59:38;;;;;;;18.15;8.02;;;-4.00;99.90;;;;;;4936983;28;20023;-78
2023/01/18 05:02:03;;;;;;;17.20;9.48;;;-3.80;99.90;;;;;;4936106;28;20039;-77
2023/01/18 05:04:32;;;;;;;21.13;9.25;;;-3.70;99.90;;;;;;4920482;28;20129;-78
2023/01/18 05:06:57;;;;;;;22.95;9.55;;;-3.80;99.90;;;;;;4934726;28;20090;-78
2023/01/18 05:09:23;;;;;;;25.67;8.68;;;-3.70;99.90;;;;;;4938815;28;20034;-78
2023/01/18 05:11:49;;;;;;;16.55;7.82;;;-3.60;99.90;;;;;;4924675;28;20459;-77
2023/01/18 05:14:14;;;;;;;18.98;10.80;;;-3.60;99.90;;;;;;4937330;28;20414;-78
2023/01/18 05:16:40;;;;;;;20.88;10.30;;;-3.50;99.90;;;;;;4922169;28;20049;-78
2023/01/18 05:19:05;;;;;;;26.65;11.15;;;-3.60;99.90;;;;;;4919387;28;20038;-77
2023/01/18 05:21:31;;;;;;;14.52;7.82;;;-3.50;99.90;;;;;;4935753;28;20085;-77
2023/01/18 05:23:56;;;;;;;18.48;9.23;;;-3.50;99.90;;;;;;4934690;28;20038;-78
2023/01/18 05:26:22;;;;;;;18.48;8.75;;;-3.30;99.90;;;;;;4921274;28;20459;-77
2023/01/18 05:28:48;;;;;;;19.23;10.07;;;-3.30;99.90;;;;;;4919035;28;20043;-77
2023/01/18 05:31:14;;;;;;;17.20;9.38;;;-3.30;99.90;;;;;;4970230;28;20049;-77
2023/01/18 05:33:40;;;;;;;19.45;9.32;;;-3.40;99.90;;;;;;4917300;28;20043;-77
2023/01/18 05:36:06;;;;;;;20.38;11.55;;;-3.50;99.90;;;;;;4917644;28;25391;-77
2023/01/18 05:38:32;;;;;;;15.75;8.52;;;-3.50;99.90;;;;;;4954903;28;20074;-77
2023/01/18 05:40:57;;;;;;;17.45;9.55;;;-3.40;99.90;;;;;;4954076;28;20127;-79
2023/01/18 05:43:25;;;;;;;21.48;11.10;;;-3.40;99.90;;;;;;4923526;28;20042;-79
2023/01/18 05:45:50;;;;;;;20.83;9.75;;;-3.40;99.90;;;;;;4931594;28;20035;-77
2023/01/18 05:48:16;;;;;;;18.90;10.40;;;-3.50;99.90;;;;;;4921642;28;20466;-78
2023/01/18 05:50:43;;;;;;;18.33;11.25;;;-3.40;99.90;;;;;;4935791;28;20395;-78
2023/01/18 05:53:09;;;;;;;19.38;8.88;;;-3.60;99.90;;;;;;4922428;28;20038;-78
2023/01/18 05:55:34;;;;;;;24.10;11.55;;;-3.50;99.90;;;;;;4922555;28;20046;-78
2023/01/18 05:58:00;;;;;;;16.13;9.15;;;-3.50;99.90;;;;;;4917579;28;20156;-79
2023/01/18 06:00:25;;;;;;;20.85;8.30;;;-3.40;99.90;;;;;;4917645;28;20557;-79
2023/01/18 06:02:52;;;;;;;18.73;8.73;;;-3.30;99.90;;;;;;4918751;28;20525;-78
2023/01/18 06:05:17;;;;;;;21.85;11.55;;;-3.50;99.90;;;;;;4938368;28;20221;-78
2023/01/18 06:07:43;;;;;;;23.05;11.73;;;-3.60;99.90;;;;;;4938561;28;20043;-77
2023/01/18 06:10:09;;;;;;;20.00;10.38;;;-3.70;99.90;;;;;;4936703;28;20038;-78
2023/01/18 06:12:35;;;;;;;19.42;8.60;;;-3.90;99.90;;;;;;4919569;28;20065;-78
2023/01/18 06:15:00;;;;;;;21.42;10.88;;;-3.70;99.90;;;;;;4920797;28;20133;-78
2023/01/18 06:17:26;;;;;;;23.40;12.85;;;-3.90;99.90;;;;;;4935498;28;20042;-78
2023/01/18 06:19:52;;;;;;;14.82;7.97;;;-3.80;99.90;;;;;;4935990;28;20039;-79
2023/01/18 06:22:17;;;;;;;24.10;12.73;;;-4.00;99.90;;;;;;4935586;28;20038;-78
2023/01/18 06:24:43;;;;;;;16.83;8.77;;;-3.70;99.90;;;;;;4935381;28;20042;-79
2023/01/18 06:27:08;;;;;;;26.80;12.18;;;-3.70;99.90;;;;;;4916873;28;20042;-79
2023/01/18 06:29:34;;;;;;;16.85;9.63;;;-3.80;99.90;;;;;;4939593;28;20527;-78
2023/01/18 06:32:00;;;;;;;22.38;13.02;;;-3.90;99.90;;;;;;4934305;28;20054;-78
2023/01/18 06:34:26;;;;;;;18.10;10.65;;;-3.80;99.90;;;;;;4935602;28;20034;-79
2023/01/18 06:36:52;;;;;;;21.85;12.85;;;-3.80;99.90;;;;;;4933385;28;20081;-78
2023/01/18 06:39:17;;;;;;;17.20;9.23;;;-3.60;99.90;;;;;;4920225;28;20054;-79
2023/01/18 06:41:43;;;;;;;16.30;9.52;;;-3.50;99.90;;;;;;4949934;28;20030;-78
2023/01/18 06:44:08;;;;;;;23.02;12.30;;;-3.50;99.90;;;;;;4937025;28;20031;-78
2023/01/18 06:46:34;;;;;;;24.15;13.68;;;-3.50;99.90;;;;;;4921417;28;20090;-78
2023/01/18 06:49:00;;;;;;;26.30;14.65;;;-3.80;99.90;;;;;;4922914;28;20046;-78
2023/01/18 06:51:25;;;;;;;24.83;13.15;;;-3.90;99.90;;;;;;4931372;28;20049;-79
2023/01/18 06:53:51;;;;;;;16.45;9.32;;;-4.00;99.90;;;;;;4938653;28;20030;-79
2023/01/18 06:56:16;;;;;;;17.40;9.00;;;-3.80;99.90;;;;;;4933572;28;20126;-79
2023/01/18 06:58:43;;;;;;;18.33;9.68;;;-3.60;99.90;;;;;;4917909;28;20066;-79
2023/01/18 07:01:09;;;;;;;19.08;9.93;;;-3.50;99.90;;;;;;4935429;28;20027;-78
2023/01/18 07:03:34;;;;;;;21.80;11.23;;;-3.50;99.90;;;;;;4921213;28;20098;-78
2023/01/18 07:06:00;;;;;;;17.95;9.80;;;-3.50;99.90;;;;;;4919187;28;20610;-79
2023/01/18 07:08:26;;;;;;;21.60;11.23;;;-3.50;99.90;;;;;;4913614;28;20090;-79
2023/01/18 07:10:52;;;;;;;24.60;12.95;;;-3.50;99.90;;;;;;4951394;28;20030;-79
2023/01/18 07:13:18;;;;;;;24.75;14.23;;;-3.70;99.90;;;;;;4919854;28;20502;-79
2023/01/18 07:15:44;;;;;;;25.58;14.25;;;-3.70;99.90;;;;;;4918134;28;20045;-78
2023/01/18 07:18:09;;;;;;;19.30;11.85;;;-3.90;99.90;;;;;;4953644;28;20039;-78
2023/01/18 07:20:36;;;;;;;20.10;10.43;;;-3.80;99.90;;;;;;4922431;28;20023;-79
2023/01/18 07:23:03;;;;;;;27.05;13.60;;;-3.80;99.90;;;;;;4919699;28;20490;-78
2023/01/18 07:25:28;;;;;;;15.93;9.30;;;-3.80;99.90;;;;;;4935129;28;20031;-79
2023/01/18 07:27:56;;;;;;;22.25;13.07;;;-3.70;99.90;;;;;;4918121;28;20398;-79
2023/01/18 07:30:21;;;;;;;23.73;12.80;;;-3.80;99.90;;;;;;4917313;28;20512;-78
2023/01/18 07:32:49;;;;;;;23.70;13.13;;;-3.90;99.90;;;;;;4935340;28;20182;-78
2023/01/18 07:35:17;;;;;;;24.85;13.15;;;-3.80;99.90;;;;;;4951157;28;22191;-79
2023/01/18 07:37:48;;;;;;;28.30;10.95;;;-3.80;99.90;;;;;;4919110;28;20046;-79
2023/01/18 07:40:14;;;;;;;26.20;13.68;;;-3.70;99.90;;;;;;4929708;28;20509;-79
2023/01/18 07:42:39;;;;;;;22.05;12.43;;;-3.80;99.90;;;;;;4934323;28;20034;-79
2023/01/18 07:45:07;;;;;;;28.50;14.20;;;-3.70;99.90;;;;;;4929115;28;20054;-78
2023/01/18 07:47:34;;;;;;;21.65;9.77;;;-3.60;99.90;;;;;;4935873;28;20126;-79
2023/01/18 07:50:00;;;;;;;14.35;8.65;;;-3.60;99.90;;;;;;4922039;28;20542;-78
2023/01/18 07:52:25;;;;;;;15.52;9.68;;;-3.70;99.90;;;;;;4942598;28;20066;-79
2023/01/18 07:54:51;;;;;;;23.75;12.40;;;-3.70;99.90;;;;;;4953841;28;20030;-79
2023/01/18 07:57:17;;;;;;;27.85;15.10;;;-3.60;99.90;;;;;;4925046;28;20038;-79
2023/01/18 07:59:42;;;;;;;23.27;12.45;;;-3.70;99.90;;;;;;4920900;28;20039;-80
2023/01/18 08:02:11;;;;;;;27.70;13.50;;;-3.50;99.90;;;;;;4922139;28;20038;-79
2023/01/18 08:04:37;;;;;;;24.05;14.57;;;-3.50;99.90;;;;;;4922226;28;20035;-79
2023/01/18 08:07:02;;;;;;;31.52;14.52;;;-3.50;99.90;;;;;;4924611;28;20069;-79
2023/01/18 08:09:28;;;;;;;25.30;15.07;;;-3.50;99.90;;;;;;4922076;28;20057;-79
2023/01/18 08:11:54;;;;;;;25.15;13.65;;;-3.40;99.90;;;;;;4921463;28;20573;-80
2023/01/18 08:14:21;;;;;;;23.92;12.90;;;-3.40;99.90;;;;;;4935316;28;20097;-80
2023/01/18 08:16:46;;;;;;;26.40;14.70;;;-3.50;99.90;;;;;;4936639;28;20073;-78
2023/01/18 08:19:12;;;;;;;22.85;11.52;;;-3.40;99.90;;;;;;4924081;28;20391;-80
2023/01/18 08:21:38;;;;;;;25.98;15.63;;;-3.60;99.90;;;;;;4922396;28;20049;-79
2023/01/18 08:24:03;;;;;;;17.40;10.35;;;-3.60;99.90;;;;;;4934649;28;20026;-79
2023/01/18 08:26:29;;;;;;;27.92;16.05;;;-3.40;99.90;;;;;;4921298;28;20035;-79
2023/01/18 08:28:55;;;;;;;21.80;11.95;;;-3.30;99.90;;;;;;4922765;28;20133;-80
2023/01/18 08:31:21;;;;;;;19.10;11.13;;;-3.20;99.90;;;;;;4923065;28;20093;-79
2023/01/18 08:33:47;;;;;;;21.35;12.75;;;-3.30;99.90;;;;;;4922282;28;20542;-80
2023/01/18 08:36:17;;;;;;;19.35;11.75;;;-3.20;99.90;;;;;;4922967;28;20707;-79
2023/01/18 08:38:46;;;;;;;29.17;17.58;;;-3.10;99.90;;;;;;4922962;28;20030;-79
2023/01/18 08:41:12;;;;;;;25.17;14.25;;;-3.10;99.90;;;;;;4920212;28;20031;-80
2023/01/18 08:43:38;;;;;;;18.92;10.60;;;-3.00;99.90;;;;;;4922274;28;20045;-79
2023/01/18 08:46:03;;;;;;;29.42;17.23;;;-3.00;99.90;;;;;;4925762;28;20026;-79
2023/01/18 08:48:29;;;;;;;19.42;10.60;;;-3.00;99.90;;;;;;4919712;28;20558;-79
2023/01/18 08:50:59;;;;;;;22.65;12.82;;;-3.00;99.90;;;;;;4922293;28;20472;-80
2023/01/18 08:53:24;;;;;;;29.02;15.90;;;-2.80;99.90;;;;;;4934503;28;20031;-79
2023/01/18 08:55:50;;;;;;;36.95;17.45;;;-2.90;99.90;;;;;;4935611;28;20497;-80
2023/01/18 08:58:16;;;;;;;30.92;16.77;;;-2.90;99.90;;;;;;4954411;28;20046;-88
2023/01/18 09:00:41;;;;;;;37.22;18.92;;;-3.00;99.90;;;;;;4920897;28;20113;-88
2023/01/18 09:03:07;;;;;;;29.67;16.80;;;-3.00;99.90;;;;;;4922884;28;20053;-87
2023/01/18 09:05:34;;;;;;;20.65;11.52;;;-3.00;99.90;;;;;;4924415;28;20115;-88
2023/01/18 09:08:00;;;;;;;36.78;19.85;;;-2.80;99.90;;;;;;4921011;28;20067;-87
2023/01/18 09:10:26;;;;;;;23.13;14.60;;;-2.80;99.90;;;;;;4919594;28;20031;-87
2023/01/18 09:12:52;;;;;;;27.42;16.20;;;-2.60;99.90;;;;;;4928375;28;20086;-87
2023/01/18 09:15:18;;;;;;;30.52;16.10;;;-2.50;99.90;;;;;;4924383;28;20035;-89
2023/01/18 09:17:44;;;;;;;27.45;14.55;;;-2.60;99.90;;;;;;4917473;28;20038;-88
2023/01/18 09:20:10;;;;;;;27.80;12.57;;;-2.50;99.90;;;;;;4952535;28;20035;-86
2023/01/18 09:22:36;;;;;;;37.85;19.67;;;-2.50;99.90;;;;;;4919262;28;20035;-87
2023/01/18 09:25:02;;;;;;;25.15;13.57;;;-2.30;99.90;;;;;;4937076;28;20487;-85
2023/01/18 09:27:28;;;;;;;31.83;16.80;;;-2.20;99.90;;;;;;4941103;28;20038;-87
2023/01/18 09:29:53;;;;;;;37.88;19.92;;;-2.10;99.90;;;;;;4923982;28;20050;-89
2023/01/18 09:32:20;;;;;;;36.03;21.02;;;-2.10;99.90;;;;;;4910458;28;20047;-87
2023/01/18 09:34:49;;;;;;;30.80;17.40;;;-2.10;99.90;;;;;;4935699;28;20035;-88
2023/01/18 09:37:18;;;;;;;29.92;16.67;;;-2.00;99.90;;;;;;4955444;28;20041;-83
2023/01/18 09:39:44;;;;;;;32.97;16.10;;;-1.90;99.90;;;;;;4923409;28;20102;-87
2023/01/18 09:42:20;;;;;;;24.77;16.27;;;-1.80;99.90;;;;;;4924792;28;20106;-88
2023/01/18 09:44:47;;;;;;;35.83;18.65;;;-1.70;99.90;;;;;;4926311;28;20037;-88
2023/01/18 09:47:20;;;;;;;17.88;9.18;;;-1.60;99.90;;;;;;4922145;28;20551;-87
2023/01/18 09:50:17;;;;;;;25.40;13.65;;;-1.40;99.90;;;;;;4916661;28;20622;-87
2023/01/18 09:53:11;;;;;;;17.85;7.57;;;-1.40;99.90;;;;;;4934759;28;20035;-87
2023/01/18 09:55:55;;;;;;;13.82;8.93;;;-1.10;99.90;;;;;;4957653;28;20126;-86
2023/01/18 09:59:02;;;;;;;27.52;14.85;;;-1.10;99.90;;;;;;4941235;28;20043;-87
2023/01/18 10:01:30;;;;;;;15.90;8.40;;;-1.00;99.90;;;;;;4953576;28;20095;-86
2023/01/18 10:04:17;;;;;;;17.63;9.25;;;-0.80;99.90;;;;;;4939657;28;20023;-87
2023/01/18 10:06:47;;;;;;;22.33;11.27;;;-0.70;99.90;;;;;;4926508;28;20089;-87
2023/01/18 10:09:40;;;;;;;37.00;14.98;;;-0.50;99.90;;;;;;4955712;28;20391;-87
2023/01/18 10:12:31;;;;;;;22.52;11.98;;;-0.50;99.90;;;;;;4948642;28;20499;-87
2023/01/18 10:15:19;;;;;;;13.70;7.35;;;-0.40;99.90;;;;;;4968906;28;20085;-86
2023/01/18 10:17:45;;;;;;;13.75;7.28;;;-0.30;99.90;;;;;;4937285;28;20481;-87
2023/01/18 10:20:28;;;;;;;26.70;14.13;;;-0.20;99.90;;;;;;4937696;28;20069;-85
2023/01/18 10:22:57;;;;;;;19.27;10.13;;;-0.20;99.90;;;;;;4953951;28;20449;-84
2023/01/18 10:25:35;;;;;;;19.75;8.95;;;-0.10;99.90;;;;;;4911199;28;20411;-86
2023/01/18 10:28:10;;;;;;;7.82;4.32;;;0.00;99.90;;;;;;5026909;27;20409;-84
2023/01/18 10:31:06;;;;;;;24.13;9.02;;;0.10;99.90;;;;;;5027459;28;20503;-83
2023/01/18 10:33:37;;;;;;;14.23;7.28;;;0.20;99.90;;;;;;5006998;28;20116;-83
2023/01/18 10:36:11;;;;;;;11.75;6.05;;;0.20;99.90;;;;;;5018171;28;20128;-83
2023/01/18 10:38:39;;;;;;;15.48;8.30;;;0.30;99.90;;;;;;4996841;28;20033;-83
2023/01/18 10:41:05;;;;;;;27.58;14.43;;;0.40;99.90;;;;;;5008387;28;20069;-84
2023/01/18 10:43:30;;;;;;;12.63;6.00;;;0.40;99.90;;;;;;5020760;28;20065;-84
2023/01/18 10:45:56;;;;;;;29.35;15.93;;;0.50;99.90;;;;;;5005331;28;20053;-84
2023/01/18 10:48:34;;;;;;;23.17;10.63;;;0.50;99.90;;;;;;4997251;28;20030;-84
2023/01/18 10:51:01;;;;;;;18.38;10.80;;;0.50;99.90;;;;;;4987460;28;20029;-84
2023/01/18 10:53:34;;;;;;;23.85;13.02;;;0.60;99.90;;;;;;5013629;28;20029;-86
2023/01/18 10:56:08;;;;;;;22.85;11.95;;;0.60;99.90;;;;;;5011935;28;20037;-86
2023/01/18 10:58:40;;;;;;;26.52;15.35;;;0.70;99.90;;;;;;5033359;28;20348;-87
2023/01/18 11:01:05;;;;;;;26.83;15.23;;;0.80;99.90;;;;;;5041127;28;20063;-86
2023/01/18 11:03:38;;;;;;;18.45;11.68;;;0.80;99.90;;;;;;5008850;28;20032;-85
2023/01/18 11:06:05;;;;;;;13.20;6.47;;;0.90;99.90;;;;;;5009546;28;20102;-86
2023/01/18 11:08:32;;;;;;;11.43;7.53;;;1.00;99.90;;;;;;5002261;28;20488;-88
2023/01/18 11:10:59;;;;;;;15.88;8.70;;;1.10;99.90;;;;;;5008258;28;20381;-87
2023/01/18 11:13:41;;;;;;;7.25;5.05;;;1.20;99.90;;;;;;5025790;28;20115;-88
2023/01/18 11:16:14;;;;;;;18.75;9.05;;;1.30;99.90;;;;;;5025859;28;20039;-88
2023/01/18 11:19:07;;;;;;;15.52;8.70;;;1.40;99.90;;;;;;5029733;28;20068;-87
2023/01/18 11:21:41;;;;;;;22.13;11.18;;;1.40;99.90;;;;;;5056843;28;20021;-89
2023/01/18 11:24:11;;;;;;;14.40;6.43;;;1.60;99.90;;;;;;5055805;28;20489;-89
2023/01/18 11:26:48;;;;;;;26.58;14.60;;;1.60;99.90;;;;;;5010764;28;20493;-88
2023/01/18 11:29:13;;;;;;;7.75;5.90;;;1.70;99.90;;;;;;5006872;28;20451;-86
2023/01/18 11:31:44;;;;;;;24.83;14.27;;;1.80;99.90;;;;;;5021407;28;20052;-89
2023/01/18 11:34:24;;;;;;;15.15;8.05;;;1.90;99.90;;;;;;5004446;28;20094;-87
2023/01/18 11:36:50;;;;;;;19.20;8.70;;;2.00;99.90;;;;;;5047221;28;20051;-86
2023/01/18 11:39:35;;;;;;;10.98;6.90;;;2.50;99.90;;;;;;4999321;28;20037;-87
2023/01/18 11:42:17;;;;;;;14.07;7.60;;;2.50;99.90;;;;;;5002849;28;20040;-85
2023/01/18 11:45:22;;;;;;;10.30;6.75;;;2.60;99.90;;;;;;5002620;28;20114;-87
2023/01/18 11:48:02;;;;;;;15.82;9.52;;;2.80;99.90;;;;;;5024557;28;20120;-86
2023/01/18 11:50:42;;;;;;;17.63;9.10;;;3.10;99.90;;;;;;4995999;28;20318;-86
2023/01/18 11:53:16;;;;;;;22.63;12.57;;;3.20;99.90;;;;;;5012765;28;20033;-88
2023/01/18 11:55:46;;;;;;;12.35;5.57;;;3.30;99.90;;;;;;5040750;28;20041;-86
2023/01/18 11:58:23;;;;;;;11.73;6.28;;;3.40;99.90;;;;;;5046292;28;20033;-86
2023/01/18 12:01:14;;;;;;;12.75;6.85;;;3.60;99.90;;;;;;5014768;28;20033;-87
2023/01/18 12:04:01;;;;;;;11.40;5.13;;;3.60;99.90;;;;;;5028335;28;20408;-86
2023/01/18 12:06:49;;;;;;;12.73;6.63;;;3.80;99.90;;;;;;5024986;28;20065;-87
2023/01/18 12:09:29;;;;;;;11.68;5.90;;;3.80;99.90;;;;;;5007796;28;20041;-88
2023/01/18 12:12:21;;;;;;;13.98;6.95;;;3.80;99.90;;;;;;5008303;28;20167;-87
2023/01/18 12:14:50;;;;;;;18.45;7.57;;;3.80;99.90;;;;;;4994188;28;20029;-89
2023/01/18 12:17:26;;;;;;;16.08;6.50;;;3.90;99.90;;;;;;5035820;28;20070;-87
2023/01/18 12:20:18;;;;;;;13.82;5.38;;;4.10;99.90;;;;;;5030457;28;20116;-88
2023/01/18 12:22:46;;;;;;;12.85;6.25;;;4.10;99.90;;;;;;4992530;28;20083;-87
2023/01/18 12:25:21;;;;;;;11.40;4.78;;;4.30;99.90;;;;;;5042750;28;20029;-87
2023/01/18 12:27:58;;;;;;;20.27;10.55;;;4.20;99.90;;;;;;5041686;28;20045;-87
2023/01/18 12:30:39;;;;;;;18.52;10.50;;;4.40;99.90;;;;;;4992118;28;20037;-86
2023/01/18 12:34:09;;;;;;;16.15;6.88;;;4.40;99.90;;;;;;5040571;28;20034;-87
2023/01/18 12:36:38;;;;;;;16.65;6.72;;;4.50;99.90;;;;;;5018279;28;20033;-86
2023/01/18 12:39:11;;;;;;;7.43;4.65;;;4.60;99.90;;;;;;5023436;28;20043;-87
2023/01/18 12:41:44;;;;;;;15.73;6.90;;;4.70;99.90;;;;;;4987386;28;20025;-87
2023/01/18 12:44:20;;;;;;;17.90;8.95;;;4.70;99.90;;;;;;4992954;28;20045;-87
2023/01/18 12:46:58;;;;;;;11.13;7.05;;;4.90;99.90;;;;;;5027508;28;20069;-87
2023/01/18 12:49:23;;;;;;;15.82;10.05;;;4.90;99.90;;;;;;5020614;28;20033;-88
2023/01/18 12:51:54;;;;;;;16.65;8.15;;;5.00;99.90;;;;;;5021773;28;20398;-88
2023/01/18 12:54:20;;;;;;;9.20;4.63;;;5.00;99.90;;;;;;5011935;28;20101;-87
2023/01/18 12:56:48;;;;;;;20.23;10.32;;;5.10;99.90;;;;;;5027080;28;20029;-86
2023/01/18 12:59:23;;;;;;;14.25;7.32;;;5.10;99.90;;;;;;4990412;28;20033;-86
2023/01/18 13:01:54;;;;;;;19.60;8.90;;;5.30;99.90;;;;;;4995766;28;20037;-86
2023/01/18 13:04:24;;;;;;;20.40;11.00;;;5.00;99.90;;;;;;4995556;28;20033;-86
2023/01/18 13:06:50;;;;;;;13.48;6.65;;;5.20;99.90;;;;;;4993218;28;20493;-87
2023/01/18 13:09:18;;;;;;;16.70;7.53;;;5.00;99.90;;;;;;4993945;28;20446;-88
2023/01/18 13:11:43;;;;;;;14.73;9.02;;;4.80;99.90;;;;;;5007245;28;20025;-86
2023/01/18 13:14:38;;;;;;;8.60;5.75;;;5.30;99.90;;;;;;5011545;28;20358;-85
2023/01/18 13:17:13;;;;;;;24.55;9.55;;;5.30;99.90;;;;;;4994610;28;20087;-87
2023/01/18 13:20:06;;;;;;;9.27;4.28;;;5.40;99.90;;;;;;5011040;28;20585;-88
2023/01/18 13:22:53;;;;;;;8.20;5.50;;;5.50;99.90;;;;;;5010873;28;20151;-87